createdAt,value
2023-11-16T00:00:22.379Z,999.36
2023-11-16T00:01:22.167Z,999.38
2023-11-16T00:02:22.205Z,999.31
2023-11-16T00:03:22.165Z,999.36
2023-11-16T00:04:22.140Z,999.31
2023-11-16T00:05:22.131Z,999.33
2023-11-16T00:06:22.099Z,999.33
2023-11-16T00:07:22.113Z,999.32
2023-11-16T00:08:22.005Z,999.31
2023-11-16T00:09:22.151Z,999.23
2023-11-16T00:10:21.984Z,999.28
2023-11-16T00:11:22.011Z,999.25
2023-11-16T00:12:22.032Z,999.27
2023-11-16T00:13:22.086Z,999.20
2023-11-16T00:14:21.969Z,999.22
2023-11-16T00:15:22.002Z,999.18
2023-11-16T00:16:21.979Z,999.18
2023-11-16T00:17:22.100Z,999.20
2023-11-16T00:18:21.965Z,999.17
2023-11-16T00:19:22.078Z,999.20
2023-11-16T00:20:21.888Z,999.19
2023-11-16T00:21:21.930Z,999.10
2023-11-16T00:22:21.934Z,999.25
2023-11-16T00:23:21.943Z,999.16
2023-11-16T00:24:21.977Z,999.20
2023-11-16T00:25:21.981Z,999.13
2023-11-16T00:26:21.828Z,999.19
2023-11-16T00:27:21.884Z,999.12
2023-11-16T00:28:21.834Z,999.14
2023-11-16T00:29:21.847Z,999.20
2023-11-16T00:30:21.911Z,999.16
2023-11-16T00:31:21.857Z,999.15
2023-11-16T00:32:21.773Z,999.15
2023-11-16T00:33:21.861Z,999.15
2023-11-16T00:34:21.746Z,999.16
2023-11-16T00:35:21.758Z,999.15
2023-11-16T00:36:21.840Z,999.08
2023-11-16T00:37:21.767Z,999.11
2023-11-16T00:38:21.730Z,999.16
2023-11-16T00:39:21.843Z,999.14
2023-11-16T00:40:21.729Z,999.12
2023-11-16T00:41:21.650Z,999.13
2023-11-16T00:42:21.789Z,999.18
2023-11-16T00:43:21.731Z,999.17
2023-11-16T00:44:21.758Z,999.13
2023-11-16T00:45:21.753Z,999.12
2023-11-16T00:46:21.704Z,999.11
2023-11-16T00:47:21.737Z,999.14
2023-11-16T00:48:21.742Z,999.09
2023-11-16T00:49:21.598Z,999.10
2023-11-16T00:50:21.598Z,999.02
2023-11-16T00:51:21.579Z,999.05
2023-11-16T00:52:21.619Z,999.05
2023-11-16T00:53:21.563Z,999.03
2023-11-16T00:54:21.610Z,999.03
2023-11-16T00:55:21.529Z,999.01
2023-11-16T00:56:21.532Z,999.00
2023-11-16T00:57:21.533Z,999.00
2023-11-16T00:58:21.588Z,998.89
2023-11-16T00:59:21.445Z,998.96
2023-11-16T01:00:21.560Z,998.93
2023-11-16T01:01:21.556Z,998.92
2023-11-16T01:02:21.456Z,998.97
2023-11-16T01:03:21.644Z,998.93
2023-11-16T01:04:21.437Z,998.96
2023-11-16T01:05:21.352Z,998.92
2023-11-16T01:06:21.471Z,998.95
2023-11-16T01:07:21.366Z,998.94
2023-11-16T01:08:21.359Z,998.99
2023-11-16T01:09:21.341Z,998.97
2023-11-16T01:10:21.389Z,998.96
2023-11-16T01:11:21.429Z,998.99
2023-11-16T01:12:21.397Z,998.98
2023-11-16T01:13:21.285Z,999.03
2023-11-16T01:14:21.327Z,999.01
2023-11-16T01:15:21.325Z,999.01
2023-11-16T01:16:21.280Z,998.95
2023-11-16T01:17:21.322Z,998.94
2023-11-16T01:18:21.344Z,998.94
2023-11-16T01:19:21.270Z,998.94
2023-11-16T01:20:21.297Z,998.96
2023-11-16T01:21:21.275Z,998.94
2023-11-16T01:22:21.285Z,998.94
2023-11-16T01:23:21.251Z,998.90
2023-11-16T01:24:21.249Z,999.02
2023-11-16T01:25:21.200Z,998.92
2023-11-16T01:26:21.226Z,998.95
2023-11-16T01:27:21.129Z,998.99
2023-11-16T01:28:21.371Z,999.00
2023-11-16T01:29:21.195Z,999.02
2023-11-16T01:30:21.134Z,999.00
2023-11-16T01:31:21.285Z,998.99
2023-11-16T01:32:21.099Z,999.06
2023-11-16T01:33:21.067Z,999.06
2023-11-16T01:34:21.133Z,998.98
2023-11-16T01:35:21.111Z,999.04
2023-11-16T01:36:21.079Z,999.04
2023-11-16T01:37:21.027Z,999.05
2023-11-16T01:38:21.109Z,999.01
2023-11-16T01:39:21.089Z,999.02
2023-11-16T01:40:21.070Z,999.02
2023-11-16T01:41:20.978Z,999.01
2023-11-16T01:42:21.049Z,998.99
2023-11-16T01:43:20.987Z,998.99
2023-11-16T01:44:21.004Z,998.97
2023-11-16T01:45:21.045Z,999.03
2023-11-16T01:46:20.998Z,999.04
2023-11-16T01:47:20.989Z,999.05
2023-11-16T01:48:21.014Z,999.05
2023-11-16T01:49:20.915Z,999.02
2023-11-16T01:50:20.896Z,998.96
2023-11-16T01:51:20.950Z,999.02
2023-11-16T01:52:20.948Z,998.97
2023-11-16T01:53:20.843Z,998.94
2023-11-16T01:54:20.916Z,998.99
2023-11-16T01:55:20.795Z,999.09
2023-11-16T01:56:20.809Z,999.01
2023-11-16T01:57:20.878Z,999.04
2023-11-16T01:58:20.825Z,998.96
2023-11-16T01:59:20.814Z,999.05
2023-11-16T02:00:20.800Z,999.04
2023-11-16T02:01:20.805Z,999.06
2023-11-16T02:02:20.747Z,999.11
2023-11-16T02:03:20.923Z,999.10
2023-11-16T02:04:20.837Z,999.14
2023-11-16T02:05:20.780Z,999.08
2023-11-16T02:06:20.773Z,999.04
2023-11-16T02:07:20.730Z,999.03
2023-11-16T02:08:20.698Z,999.15
2023-11-16T02:09:20.794Z,999.05
2023-11-16T02:10:20.619Z,999.02
2023-11-16T02:11:20.675Z,999.04
2023-11-16T02:12:20.686Z,998.99
2023-11-16T02:13:20.634Z,998.96
2023-11-16T02:14:20.670Z,998.99
2023-11-16T02:15:20.656Z,998.91
2023-11-16T02:16:20.675Z,999.04
2023-11-16T02:17:20.586Z,998.99
2023-11-16T02:18:20.605Z,998.99
2023-11-16T02:19:20.563Z,999.02
2023-11-16T02:20:20.523Z,999.06
2023-11-16T02:21:20.646Z,999.03
2023-11-16T02:22:20.517Z,999.03
2023-11-16T02:23:20.496Z,999.01
2023-11-16T02:24:20.632Z,999.03
2023-11-16T02:25:20.520Z,999.08
2023-11-16T02:26:20.456Z,999.04
2023-11-16T02:27:20.503Z,999.00
2023-11-16T02:28:20.512Z,999.02
2023-11-16T02:29:20.442Z,999.00
2023-11-16T02:30:20.460Z,998.93
2023-11-16T02:31:20.509Z,998.96
2023-11-16T02:32:20.377Z,998.96
2023-11-16T02:33:20.543Z,998.96
2023-11-16T02:34:20.367Z,998.94
2023-11-16T02:35:20.374Z,998.85
2023-11-16T02:36:20.363Z,998.76
2023-11-16T02:37:20.347Z,998.80
2023-11-16T02:38:20.340Z,998.78
2023-11-16T02:39:20.400Z,998.79
2023-11-16T02:40:20.312Z,998.76
2023-11-16T02:41:20.321Z,998.74
2023-11-16T02:42:20.315Z,998.77
2023-11-16T02:43:20.252Z,998.74
2023-11-16T02:44:20.696Z,998.75
2023-11-16T02:45:20.321Z,998.75
2023-11-16T02:46:20.245Z,998.72
2023-11-16T02:47:20.288Z,998.71
2023-11-16T02:48:20.346Z,998.72
2023-11-16T02:49:20.193Z,998.72
2023-11-16T02:50:20.215Z,998.73
2023-11-16T02:51:20.194Z,998.73
2023-11-16T02:52:20.206Z,998.70
2023-11-16T02:53:20.235Z,998.72
2023-11-16T02:54:20.160Z,998.73
2023-11-16T02:55:20.124Z,998.76
2023-11-16T02:56:20.137Z,998.76
2023-11-16T02:57:20.106Z,998.78
2023-11-16T02:58:20.084Z,998.83
2023-11-16T02:59:20.047Z,998.71
2023-11-16T03:00:20.207Z,998.77
2023-11-16T03:01:20.085Z,998.83
2023-11-16T03:02:20.108Z,998.80
2023-11-16T03:03:20.150Z,998.81
2023-11-16T03:04:20.044Z,998.78
2023-11-16T03:05:20.030Z,998.79
2023-11-16T03:06:20.080Z,998.85
2023-11-16T03:07:27.006Z,998.83
2023-11-16T03:08:21.062Z,998.82
2023-11-16T03:09:20.034Z,998.81
2023-11-16T03:10:20.043Z,998.75
2023-11-16T03:11:19.936Z,998.75
2023-11-16T03:12:19.983Z,998.81
2023-11-16T03:13:19.964Z,998.84
2023-11-16T03:14:19.933Z,998.84
2023-11-16T03:15:19.916Z,998.85
2023-11-16T03:16:19.906Z,998.84
2023-11-16T03:17:19.856Z,998.86
2023-11-16T03:18:19.943Z,998.86
2023-11-16T03:19:19.898Z,998.85
2023-11-16T03:20:19.836Z,998.81
2023-11-16T03:21:19.928Z,998.78
2023-11-16T03:22:19.800Z,998.79
2023-11-16T03:23:19.835Z,998.84
2023-11-16T03:24:19.810Z,998.78
2023-11-16T03:25:19.809Z,998.78
2023-11-16T03:26:19.857Z,998.77
2023-11-16T03:27:19.827Z,998.73
2023-11-16T03:28:19.849Z,998.77
2023-11-16T03:29:19.716Z,998.71
2023-11-16T03:30:19.774Z,998.75
2023-11-16T03:31:19.783Z,998.77
2023-11-16T03:32:19.679Z,998.75
2023-11-16T03:33:19.785Z,998.78
2023-11-16T03:34:19.693Z,998.77
2023-11-16T03:35:19.654Z,998.75
2023-11-16T03:36:19.718Z,998.78
2023-11-16T03:37:19.716Z,998.78
2023-11-16T03:38:19.722Z,998.77
2023-11-16T03:39:19.673Z,998.77
2023-11-16T03:40:19.656Z,998.75
2023-11-16T03:41:19.613Z,998.73
2023-11-16T03:42:19.774Z,998.79
2023-11-16T03:43:19.718Z,998.76
2023-11-16T03:44:19.543Z,998.75
2023-11-16T03:45:19.653Z,998.72
2023-11-16T03:46:19.604Z,998.73
2023-11-16T03:47:19.523Z,998.70
2023-11-16T03:48:19.620Z,998.65
2023-11-16T03:49:19.571Z,998.70
2023-11-16T03:50:19.569Z,998.69
2023-11-16T03:51:19.563Z,998.74
2023-11-16T03:52:19.487Z,998.73
2023-11-16T03:53:19.433Z,998.67
2023-11-16T03:54:19.569Z,998.67
2023-11-16T03:55:19.434Z,998.65
2023-11-16T03:56:19.401Z,998.67
2023-11-16T03:57:19.434Z,998.70
2023-11-16T03:58:19.430Z,998.67
2023-11-16T03:59:19.394Z,998.66
2023-11-16T04:00:19.552Z,998.65
2023-11-16T04:01:19.361Z,998.61
2023-11-16T04:02:19.370Z,998.57
2023-11-16T04:03:19.476Z,998.63
2023-11-16T04:04:19.399Z,998.61
2023-11-16T04:05:19.373Z,998.62
2023-11-16T04:06:19.437Z,998.63
2023-11-16T04:07:19.307Z,998.63
2023-11-16T04:08:19.287Z,998.61
2023-11-16T04:09:19.315Z,998.61
2023-11-16T04:10:19.361Z,998.63
2023-11-16T04:11:19.291Z,998.60
2023-11-16T04:12:19.345Z,998.57
2023-11-16T04:13:19.251Z,998.52
2023-11-16T04:14:19.343Z,998.50
2023-11-16T04:15:19.249Z,998.51
2023-11-16T04:16:19.249Z,998.54
2023-11-16T04:17:19.214Z,998.49
2023-11-16T04:18:19.260Z,998.48
2023-11-16T04:19:19.270Z,998.46
2023-11-16T04:20:19.144Z,998.47
2023-11-16T04:21:19.263Z,998.42
2023-11-16T04:22:19.165Z,998.40
2023-11-16T04:23:19.198Z,998.44
2023-11-16T04:24:19.766Z,998.42
2023-11-16T04:25:19.142Z,998.47
2023-11-16T04:26:19.115Z,998.43
2023-11-16T04:27:19.092Z,998.41
2023-11-16T04:28:19.077Z,998.37
2023-11-16T04:29:20.548Z,998.36
2023-11-16T04:30:19.080Z,998.41
2023-11-16T04:31:19.072Z,998.39
2023-11-16T04:32:19.052Z,998.48
2023-11-16T04:33:19.085Z,998.43
2023-11-16T04:34:18.998Z,998.33
2023-11-16T04:35:19.039Z,998.36
2023-11-16T04:36:19.092Z,998.32
2023-11-16T04:37:18.963Z,998.26
2023-11-16T04:38:18.975Z,998.23
2023-11-16T04:39:18.943Z,998.23
2023-11-16T04:40:18.936Z,998.24
2023-11-16T04:41:18.957Z,998.22
2023-11-16T04:42:19.017Z,998.19
2023-11-16T04:43:18.935Z,998.20
2023-11-16T04:44:18.901Z,998.22
2023-11-16T04:45:18.937Z,998.28
2023-11-16T04:46:18.873Z,998.17
2023-11-16T04:47:18.971Z,998.11
2023-11-16T04:48:19.022Z,998.15
2023-11-16T04:49:18.943Z,998.17
2023-11-16T04:50:18.803Z,998.20
2023-11-16T04:51:18.810Z,998.16
2023-11-16T04:52:18.808Z,998.07
2023-11-16T04:53:18.797Z,998.08
2023-11-16T04:54:18.818Z,998.01
2023-11-16T04:55:18.837Z,998.02
2023-11-16T04:56:18.824Z,997.98
2023-11-16T04:57:18.980Z,998.04
2023-11-16T04:58:18.777Z,997.94
2023-11-16T04:59:18.729Z,997.93
2023-11-16T05:00:18.749Z,997.92
2023-11-16T05:01:18.810Z,997.94
2023-11-16T05:02:18.674Z,997.90
2023-11-16T05:03:18.813Z,997.91
2023-11-16T05:04:18.786Z,997.82
2023-11-16T05:05:18.725Z,997.88
2023-11-16T05:06:18.698Z,997.90
2023-11-16T05:07:18.635Z,997.88
2023-11-16T05:08:18.648Z,997.89
2023-11-16T05:09:18.616Z,997.87
2023-11-16T05:10:18.580Z,997.90
2023-11-16T05:11:18.661Z,997.88
2023-11-16T05:12:18.628Z,997.89
2023-11-16T05:13:18.607Z,997.93
2023-11-16T05:14:18.550Z,997.96
2023-11-16T05:15:18.979Z,997.93
2023-11-16T05:16:18.689Z,997.99
2023-11-16T05:17:18.547Z,997.95
2023-11-16T05:18:18.600Z,997.96
2023-11-16T05:19:18.462Z,997.93
2023-11-16T05:20:18.781Z,997.88
2023-11-16T05:21:18.793Z,997.87
2023-11-16T05:22:18.396Z,997.89
2023-11-16T05:23:18.506Z,997.94
2023-11-16T05:24:18.391Z,997.96
2023-11-16T05:25:18.528Z,997.92
2023-11-16T05:26:18.403Z,997.98
2023-11-16T05:27:18.387Z,998.05
2023-11-16T05:28:18.366Z,998.02
2023-11-16T05:29:18.415Z,998.00
2023-11-16T05:30:18.346Z,998.03
2023-11-16T05:31:18.580Z,998.04
2023-11-16T05:32:18.628Z,998.02
2023-11-16T05:33:18.310Z,998.03
2023-11-16T05:34:18.388Z,998.03
2023-11-16T05:35:18.255Z,998.01
2023-11-16T05:36:18.271Z,998.03
2023-11-16T05:37:18.295Z,998.00
2023-11-16T05:38:18.418Z,997.91
2023-11-16T05:39:18.447Z,997.95
2023-11-16T05:40:20.457Z,997.85
2023-11-16T05:41:21.601Z,997.82
2023-11-16T05:42:20.758Z,997.81
2023-11-16T05:43:21.747Z,997.85
2023-11-16T05:44:20.866Z,997.83
2023-11-16T05:45:21.768Z,997.83
2023-11-16T05:46:19.492Z,997.80
2023-11-16T05:47:21.111Z,997.81
2023-11-16T05:48:25.870Z,997.83
2023-11-16T05:49:20.766Z,997.82
2023-11-16T05:50:18.886Z,997.91
2023-11-16T05:51:19.363Z,997.85
2023-11-16T05:52:20.141Z,997.86
2023-11-16T05:53:19.721Z,997.81
2023-11-16T05:54:20.352Z,997.79
2023-11-16T05:55:19.962Z,997.82
2023-11-16T05:56:20.035Z,997.71
2023-11-16T05:57:19.119Z,997.75
2023-11-16T05:58:19.606Z,997.72
2023-11-16T05:59:18.652Z,997.69
2023-11-16T06:00:21.298Z,997.83
2023-11-16T06:01:19.397Z,997.66
2023-11-16T06:02:19.370Z,997.70
2023-11-16T06:03:18.456Z,997.71
2023-11-16T06:04:21.436Z,997.83
2023-11-16T06:06:27.923Z,997.77
2023-11-16T06:07:42.345Z,997.73
2023-11-16T06:08:27.758Z,997.83
2023-11-16T06:09:29.582Z,997.73
2023-11-16T06:10:28.955Z,997.73
2023-11-16T06:11:28.369Z,997.70
2023-11-16T06:12:28.218Z,997.78
2023-11-16T06:13:29.820Z,997.71
2023-11-16T06:14:37.204Z,997.68
2023-11-16T06:15:30.094Z,997.68
2023-11-16T06:16:28.628Z,997.64
2023-11-16T06:17:29.598Z,997.65
2023-11-16T06:18:28.414Z,997.68
2023-11-16T06:19:31.648Z,997.68
2023-11-16T06:20:28.298Z,997.60
2023-11-16T06:21:29.930Z,997.64
2023-11-16T06:22:30.018Z,997.63
2023-11-16T06:23:28.396Z,997.60
2023-11-16T06:24:30.560Z,997.62
2023-11-16T06:25:31.575Z,997.67
2023-11-16T06:26:29.594Z,997.67
2023-11-16T06:27:28.846Z,997.69
2023-11-16T06:28:28.454Z,997.68
2023-11-16T06:29:28.650Z,997.66
2023-11-16T06:30:27.328Z,997.68
2023-11-16T06:31:27.219Z,997.66
2023-11-16T06:32:27.278Z,997.64
2023-11-16T06:33:27.185Z,997.68
2023-11-16T06:34:27.158Z,997.68
2023-11-16T06:35:27.179Z,997.60
2023-11-16T06:36:27.219Z,997.66
2023-11-16T06:37:27.193Z,997.68
2023-11-16T06:38:27.130Z,997.62
2023-11-16T06:39:27.136Z,997.66
2023-11-16T06:40:27.120Z,997.70
2023-11-16T06:41:27.097Z,997.65
2023-11-16T06:42:27.138Z,997.59
2023-11-16T06:43:27.071Z,997.55
2023-11-16T06:44:27.061Z,997.61
2023-11-16T06:45:27.104Z,997.72
2023-11-16T06:46:29.281Z,997.67
2023-11-16T06:47:27.142Z,997.68
2023-11-16T06:48:27.116Z,997.73
2023-11-16T06:49:27.020Z,997.78
2023-11-16T06:50:26.996Z,997.75
2023-11-16T06:51:27.019Z,997.76
2023-11-16T06:52:26.961Z,997.79
2023-11-16T06:53:26.999Z,997.67
2023-11-16T06:54:26.930Z,997.67
2023-11-16T06:55:26.938Z,997.65
2023-11-16T06:56:26.916Z,997.66
2023-11-16T06:57:26.951Z,997.62
2023-11-16T06:58:26.911Z,997.67
2023-11-16T06:59:26.918Z,997.64
2023-11-16T07:00:26.944Z,997.65
2023-11-16T07:01:26.902Z,997.64
2023-11-16T07:02:27.652Z,997.62
2023-11-16T07:03:26.962Z,997.59
2023-11-16T07:04:27.068Z,997.58
2023-11-16T07:05:26.837Z,997.63
2023-11-16T07:06:26.850Z,997.56
2023-11-16T07:07:26.788Z,997.51
2023-11-16T07:08:26.795Z,997.51
2023-11-16T07:09:26.893Z,997.59
2023-11-16T07:10:26.800Z,997.51
2023-11-16T07:11:26.729Z,997.54
2023-11-16T07:12:27.976Z,997.57
2023-11-16T07:13:26.815Z,997.57
2023-11-16T07:14:29.203Z,997.58
2023-11-16T07:15:26.745Z,997.59
2023-11-16T07:16:26.723Z,997.63
2023-11-16T07:17:26.758Z,997.63
2023-11-16T07:18:26.834Z,997.58
2023-11-16T07:19:26.668Z,997.54
2023-11-16T07:20:26.678Z,997.57
2023-11-16T07:21:26.997Z,997.53
2023-11-16T07:22:26.607Z,997.51
2023-11-16T07:23:26.720Z,997.49
2023-11-16T07:24:26.674Z,997.46
2023-11-16T07:25:26.614Z,997.43
2023-11-16T07:26:26.639Z,997.43
2023-11-16T07:27:26.661Z,997.45
2023-11-16T07:28:26.578Z,997.40
2023-11-16T07:29:26.545Z,997.37
2023-11-16T07:30:27.211Z,997.35
2023-11-16T07:31:27.049Z,997.32
2023-11-16T07:32:27.173Z,997.29
2023-11-16T07:33:26.794Z,997.34
2023-11-16T07:34:26.607Z,997.35
2023-11-16T07:35:26.559Z,997.33
2023-11-16T07:36:26.559Z,997.30
2023-11-16T07:37:27.645Z,997.32
2023-11-16T07:38:26.503Z,997.20
2023-11-16T07:39:26.484Z,997.25
2023-11-16T07:40:26.700Z,997.19
2023-11-16T07:41:26.466Z,997.15
2023-11-16T07:42:26.471Z,997.21
2023-11-16T07:43:26.495Z,997.15
2023-11-16T07:44:26.648Z,997.17
2023-11-16T07:45:26.499Z,997.10
2023-11-16T07:46:26.503Z,997.02
2023-11-16T07:47:26.446Z,997.02
2023-11-16T07:48:26.479Z,996.99
2023-11-16T07:49:26.594Z,996.98
2023-11-16T07:50:26.391Z,996.98
2023-11-16T07:51:26.468Z,996.97
2023-11-16T07:52:26.450Z,996.99
2023-11-16T07:53:26.356Z,996.92
2023-11-16T07:54:26.419Z,996.89
2023-11-16T07:55:26.451Z,996.84
2023-11-16T07:56:26.318Z,996.84
2023-11-16T07:57:26.301Z,996.84
2023-11-16T07:58:26.278Z,996.87
2023-11-16T07:59:26.281Z,996.92
2023-11-16T08:00:26.296Z,996.91
2023-11-16T08:01:26.260Z,996.86
2023-11-16T08:02:26.244Z,996.90
2023-11-16T08:03:26.376Z,996.89
2023-11-16T08:04:26.230Z,996.94
2023-11-16T08:05:26.191Z,996.83
2023-11-16T08:06:28.327Z,996.82
2023-11-16T08:07:26.119Z,996.82
2023-11-16T08:08:26.113Z,996.84
2023-11-16T08:09:26.123Z,996.84
2023-11-16T08:10:26.098Z,996.88
2023-11-16T08:11:26.092Z,996.89
2023-11-16T08:12:26.143Z,996.97
2023-11-16T08:13:26.086Z,997.00
2023-11-16T08:14:26.095Z,996.91
2023-11-16T08:15:26.055Z,996.95
2023-11-16T08:16:26.637Z,996.91
2023-11-16T08:17:26.063Z,996.89
2023-11-16T08:18:26.557Z,996.83
2023-11-16T08:19:26.003Z,996.89
2023-11-16T08:20:25.987Z,996.82
2023-11-16T08:21:25.989Z,996.84
2023-11-16T08:22:25.952Z,996.81
2023-11-16T08:23:30.222Z,996.83
2023-11-16T08:24:27.008Z,996.82
2023-11-16T08:25:25.929Z,996.77
2023-11-16T08:26:25.905Z,996.77
2023-11-16T08:27:25.891Z,996.74
2023-11-16T08:28:25.865Z,996.69
2023-11-16T08:29:25.867Z,996.60
2023-11-16T08:30:25.866Z,996.66
2023-11-16T08:31:25.882Z,996.74
2023-11-16T08:32:25.912Z,996.68
2023-11-16T08:33:25.830Z,996.72
2023-11-16T08:34:25.806Z,996.67
2023-11-16T08:35:25.858Z,996.68
2023-11-16T08:36:25.826Z,996.59
2023-11-16T08:37:25.818Z,996.64
2023-11-16T08:38:25.753Z,996.64
2023-11-16T08:39:25.804Z,996.61
2023-11-16T08:40:25.724Z,996.59
2023-11-16T08:41:25.750Z,996.66
2023-11-16T08:42:25.704Z,996.67
2023-11-16T08:43:25.747Z,996.71
2023-11-16T08:44:25.729Z,996.70
2023-11-16T08:45:25.698Z,996.66
2023-11-16T08:46:26.411Z,996.66
2023-11-16T08:47:25.650Z,996.62
2023-11-16T08:48:25.714Z,996.58
2023-11-16T08:49:25.634Z,996.59
2023-11-16T08:50:25.618Z,996.62
2023-11-16T08:51:25.892Z,996.63
2023-11-16T08:52:25.606Z,996.57
2023-11-16T08:53:25.606Z,996.62
2023-11-16T08:54:25.789Z,996.60
2023-11-16T08:55:25.601Z,996.55
2023-11-16T08:56:31.283Z,996.54
2023-11-16T08:57:26.600Z,996.49
2023-11-16T08:58:25.538Z,996.46
2023-11-16T08:59:25.546Z,996.48
2023-11-16T09:00:25.565Z,996.48
2023-11-16T09:01:25.529Z,996.45
2023-11-16T09:02:25.498Z,996.39
2023-11-16T09:03:25.826Z,996.46
2023-11-16T09:04:26.207Z,996.41
2023-11-16T09:05:25.501Z,996.36
2023-11-16T09:06:25.487Z,996.38
2023-11-16T09:07:25.428Z,996.43
2023-11-16T09:08:25.456Z,996.38
2023-11-16T09:09:25.471Z,996.36
2023-11-16T09:10:25.492Z,996.33
2023-11-16T09:11:25.398Z,996.34
2023-11-16T09:12:25.426Z,996.33
2023-11-16T09:13:25.373Z,996.32
2023-11-16T09:14:27.850Z,996.32
2023-11-16T09:15:25.373Z,996.29
2023-11-16T09:16:25.324Z,996.32
2023-11-16T09:17:25.383Z,996.29
2023-11-16T09:18:25.399Z,996.33
2023-11-16T09:19:25.348Z,996.37
2023-11-16T09:20:25.274Z,996.39
2023-11-16T09:21:25.293Z,996.38
2023-11-16T09:22:25.356Z,996.37
2023-11-16T09:23:25.286Z,996.33
2023-11-16T09:24:25.275Z,996.36
2023-11-16T09:25:25.430Z,996.33
2023-11-16T09:26:25.722Z,996.25
2023-11-16T09:27:25.303Z,996.25
2023-11-16T09:28:25.292Z,996.23
2023-11-16T09:29:25.233Z,996.20
2023-11-16T09:30:29.583Z,996.27
2023-11-16T09:31:25.547Z,996.22
2023-11-16T09:32:25.602Z,996.24
2023-11-16T09:33:27.055Z,996.24
2023-11-16T09:34:32.859Z,996.25
2023-11-16T09:35:36.886Z,996.19
2023-11-16T09:36:27.566Z,996.28
2023-11-16T09:37:32.410Z,996.18
2023-11-16T09:38:30.682Z,996.18
2023-11-16T09:39:27.637Z,996.17
2023-11-16T09:40:29.169Z,996.19
2023-11-16T09:45:06.111Z,996.17
2023-11-16T09:46:00.505Z,996.04
2023-11-16T09:47:00.729Z,996.08
2023-11-16T09:48:00.335Z,996.07
2023-11-16T09:49:03.652Z,996.10
2023-11-16T09:50:04.691Z,996.10
2023-11-16T09:51:02.432Z,996.04
2023-11-16T09:52:09.109Z,996.04
2023-11-16T09:53:01.789Z,996.03
2023-11-16T09:54:02.129Z,995.93
2023-11-16T09:55:02.371Z,995.93
2023-11-16T09:56:39.403Z,995.95
2023-11-16T09:57:01.572Z,995.97
2023-11-16T09:57:59.919Z,995.87
2023-11-16T09:59:00.368Z,995.85
2023-11-16T10:00:00.295Z,995.87
2023-11-16T10:01:00.544Z,995.84
2023-11-16T10:02:00.414Z,995.74
2023-11-16T10:03:00.066Z,995.69
2023-11-16T10:04:00.668Z,995.67
2023-11-16T10:05:00.391Z,995.68
2023-11-16T10:06:00.215Z,995.63
2023-11-16T10:07:00.411Z,995.61
2023-11-16T10:07:59.954Z,995.46
2023-11-16T10:08:59.808Z,995.57
2023-11-16T10:10:00.647Z,995.48
2023-11-16T10:11:01.144Z,995.53
2023-11-16T10:11:59.842Z,995.59
2023-11-16T10:13:00.120Z,995.49
2023-11-16T10:14:00.808Z,995.40
2023-11-16T10:14:59.706Z,995.46
2023-11-16T10:16:00.179Z,995.44
2023-11-16T10:17:00.035Z,995.41
2023-11-16T10:17:59.915Z,995.39
2023-11-16T10:19:00.364Z,995.37
2023-11-16T10:19:59.600Z,995.36
2023-11-16T10:20:59.531Z,995.32
2023-11-16T10:21:59.704Z,995.31
2023-11-16T10:22:59.541Z,995.32
2023-11-16T10:23:59.543Z,995.31
2023-11-16T10:24:59.599Z,995.33
2023-11-16T10:25:59.521Z,995.34
2023-11-16T10:26:59.563Z,995.31
2023-11-16T10:27:59.627Z,995.32
2023-11-16T10:28:59.438Z,995.30
2023-11-16T10:29:59.518Z,995.31
2023-11-16T10:30:59.458Z,995.24
2023-11-16T10:31:59.556Z,995.24
2023-11-16T10:32:59.474Z,995.13
2023-11-16T10:33:59.707Z,995.13
2023-11-16T10:34:59.420Z,995.12
2023-11-16T10:35:59.390Z,995.04
2023-11-16T10:36:59.407Z,994.98
2023-11-16T10:37:59.397Z,995.02
2023-11-16T10:38:59.448Z,994.90
2023-11-16T10:39:59.393Z,994.94
2023-11-16T10:40:59.341Z,994.86
2023-11-16T10:41:59.434Z,994.81
2023-11-16T10:42:59.385Z,994.77
2023-11-16T10:43:59.261Z,994.74
2023-11-16T10:44:59.374Z,994.75
2023-11-16T10:45:59.319Z,994.64
2023-11-16T10:46:59.365Z,994.66
2023-11-16T10:47:59.239Z,994.56
2023-11-16T10:48:59.275Z,994.57
2023-11-16T10:49:59.211Z,994.53
2023-11-16T10:50:59.157Z,994.55
2023-11-16T10:51:59.206Z,994.47
2023-11-16T10:52:59.173Z,994.45
2023-11-16T10:53:59.130Z,994.43
2023-11-16T10:54:59.195Z,994.45
2023-11-16T10:55:59.120Z,994.42
2023-11-16T10:56:59.083Z,994.33
2023-11-16T10:57:59.129Z,994.30
2023-11-16T10:58:59.098Z,994.28
2023-11-16T10:59:59.099Z,994.24
2023-11-16T11:00:59.176Z,994.25
2023-11-16T11:01:59.058Z,994.20
2023-11-16T11:02:59.057Z,994.19
2023-11-16T11:03:59.302Z,994.14
2023-11-16T11:04:59.111Z,994.10
2023-11-16T11:05:59.077Z,994.03
2023-11-16T11:06:59.118Z,994.08
2023-11-16T11:07:58.992Z,994.09
2023-11-16T11:08:59.111Z,994.03
2023-11-16T11:09:59.008Z,994.07
2023-11-16T11:10:59.053Z,994.04
2023-11-16T11:11:59.078Z,994.01
2023-11-16T11:12:59.028Z,994.05
2023-11-16T11:13:59.670Z,994.02
2023-11-16T11:14:58.926Z,993.95
2023-11-16T11:15:58.982Z,993.99
2023-11-16T11:16:58.938Z,993.93
2023-11-16T11:17:58.983Z,993.85
2023-11-16T11:18:59.664Z,993.95
2023-11-16T11:19:58.953Z,993.95
2023-11-16T11:20:58.871Z,994.00
2023-11-16T11:21:58.872Z,993.98
2023-11-16T11:22:58.840Z,993.98
2023-11-16T11:23:58.866Z,993.97
2023-11-16T11:25:02.164Z,994.02
2023-11-16T11:25:59.792Z,993.91
2023-11-16T11:26:58.884Z,993.95
2023-11-16T11:27:58.820Z,993.93
2023-11-16T11:28:58.784Z,993.87
2023-11-16T11:29:58.731Z,993.89
2023-11-16T11:32:26.082Z,993.89
2023-11-16T11:33:23.501Z,993.84
2023-11-16T11:34:24.798Z,993.81
2023-11-16T11:35:23.912Z,993.79
2023-11-16T11:36:23.940Z,993.75
2023-11-16T11:37:23.147Z,993.76
2023-11-16T11:38:25.325Z,993.79
2023-11-16T11:39:22.575Z,993.71
2023-11-16T11:40:23.464Z,993.71
2023-11-16T11:41:25.028Z,993.71
2023-11-16T11:42:26.364Z,993.68
2023-11-16T11:43:24.259Z,993.66
2023-11-16T11:44:24.597Z,993.71
2023-11-16T11:45:22.917Z,993.67
2023-11-16T11:46:24.296Z,993.68
2023-11-16T11:47:25.729Z,993.68
2023-11-16T11:48:25.201Z,993.68
2023-11-16T11:49:28.958Z,993.68
2023-11-16T11:50:22.960Z,993.73
2023-11-16T11:51:26.504Z,993.77
2023-11-16T11:52:23.450Z,993.73
2023-11-16T11:53:27.209Z,993.80
2023-11-16T11:54:23.645Z,993.73
2023-11-16T11:55:24.988Z,993.72
2023-11-16T11:57:41.352Z,993.74
2023-11-16T11:58:38.471Z,993.74
2023-11-16T11:59:37.203Z,993.73
2023-11-16T12:00:37.301Z,993.73
2023-11-16T12:01:40.002Z,993.75
2023-11-16T12:02:36.066Z,993.78
2023-11-16T12:03:35.053Z,993.73
2023-11-16T12:04:33.415Z,993.67
2023-11-16T12:05:36.893Z,993.65
2023-11-16T12:06:33.804Z,993.59
2023-11-16T12:07:36.434Z,993.60
2023-11-16T12:09:59.103Z,993.67
2023-11-16T12:10:57.969Z,993.71
2023-11-16T12:12:01.508Z,993.67
2023-11-16T12:13:00.048Z,993.64
2023-11-16T12:13:57.442Z,993.67
2023-11-16T12:14:56.154Z,993.68
2023-11-16T12:15:55.519Z,993.63
2023-11-16T12:16:58.547Z,993.61
2023-11-16T12:18:00.777Z,993.66
2023-11-16T12:18:58.343Z,993.58
2023-11-16T12:19:53.746Z,993.56
2023-11-16T12:20:53.536Z,993.52
2023-11-16T12:21:53.592Z,993.57
2023-11-16T12:22:53.514Z,993.54
2023-11-16T12:23:53.490Z,993.54
2023-11-16T12:24:53.872Z,993.51
2023-11-16T12:25:53.513Z,993.54
2023-11-16T12:26:53.653Z,993.48
2023-11-16T12:27:53.539Z,993.50
2023-11-16T12:28:53.479Z,993.46
2023-11-16T12:29:53.474Z,993.52
2023-11-16T12:30:54.438Z,993.48
2023-11-16T12:31:53.410Z,993.48
2023-11-16T12:32:53.513Z,993.44
2023-11-16T12:33:53.442Z,993.46
2023-11-16T12:34:53.408Z,993.40
2023-11-16T12:35:53.376Z,993.40
2023-11-16T12:36:53.436Z,993.33